Time,TemperatureF,DewpointF,PressureIn,WindDirection,WindDirectionDegrees,WindSpeedMPH,WindSpeedGustMPH,Humidity,HourlyPrecipIn,Conditions,Clouds,dailyrainin,SoftwareType,DateUTC
2013-07-11 00:02:00,60.0,60.0,29.80,SSE,155,0.0,2.0,99,0.00,,,-99.99,,2013-07-11 04:02:00,
2013-07-11 00:32:00,61.0,61.0,29.78,SSE,164,0.0,4.0,99,0.00,,,-99.99,,2013-07-11 04:32:00,
2013-07-11 00:42:00,61.0,61.0,29.78,WSW,245,0.0,1.0,99,0.00,,,-99.99,,2013-07-11 04:42:00,
2013-07-11 00:53:00,61.0,61.0,29.78,WSW,246,0.0,2.0,99,0.00,,,-99.99,,2013-07-11 04:53:00,
2013-07-11 01:02:00,61.0,61.0,29.78,WSW,245,0.0,2.0,99,0.00,,,-99.99,,2013-07-11 05:02:00,
2013-07-11 01:22:00,63.0,63.0,29.76,SSW,209,0.0,5.0,99,0.50,,,-99.99,,2013-07-11 05:22:00,
2013-07-11 01:32:00,63.0,63.0,29.76,SSW,209,0.0,5.0,99,0.50,,,-99.99,,2013-07-11 05:32:00,
2013-07-11 01:43:00,63.0,63.0,29.76,SSE,163,1.0,2.0,99,0.08,,,-99.99,,2013-07-11 05:43:00,
2013-07-11 01:52:00,63.0,63.0,29.76,SSW,193,0.0,5.0,99,0.04,,,-99.99,,2013-07-11 05:52:00,
2013-07-11 02:01:00,63.0,63.0,29.76,South,189,0.0,5.0,99,0.00,,,-99.99,,2013-07-11 06:01:00,
2013-07-11 02:12:00,63.0,63.0,29.75,South,190,0.0,6.0,99,0.00,,,-99.99,,2013-07-11 06:12:00,
2013-07-11 02:22:00,63.0,63.0,29.75,SW,220,2.0,4.0,99,0.00,,,-99.99,,2013-07-11 06:22:00,
2013-07-11 02:32:00,63.0,63.0,29.75,SSW,205,0.0,4.0,99,0.00,,,-99.99,,2013-07-11 06:32:00,
2013-07-11 02:43:00,64.0,64.0,29.75,South,189,0.0,6.0,99,0.00,,,-99.99,,2013-07-11 06:43:00,
2013-07-11 02:52:00,64.0,64.0,29.75,South,189,0.0,6.0,99,0.00,,,-99.99,,2013-07-11 06:52:00,
2013-07-11 03:02:00,64.0,64.0,29.75,South,178,0.0,2.0,99,0.00,,,-99.99,,2013-07-11 07:02:00,
2013-07-11 03:22:00,63.0,63.0,29.74,South,190,0.0,5.0,99,0.00,,,-99.99,,2013-07-11 07:22:00,
2013-07-11 03:45:00,64.0,64.0,29.74,SW,229,0.0,0.0,99,0.00,,,-99.99,,2013-07-11 07:45:00,
2013-07-11 03:53:00,64.0,64.0,29.74,SW,229,0.0,0.0,99,0.00,,,-99.99,,2013-07-11 07:53:00,
2013-07-11 04:02:00,64.0,64.0,29.74,SW,229,0.0,0.0,99,0.00,,,-99.99,,2013-07-11 08:02:00,
2013-07-11 04:12:00,64.0,64.0,29.74,SW,229,0.0,0.0,99,0.00,,,-99.99,,2013-07-11 08:12:00,
2013-07-11 04:22:00,64.0,64.0,29.74,SW,229,0.0,0.0,99,0.00,,,-99.99,,2013-07-11 08:22:00,
2013-07-11 04:34:00,64.0,64.0,29.75,SW,229,0.0,0.0,99,0.00,,,-99.99,,2013-07-11 08:34:00,
2013-07-11 04:43:00,64.0,64.0,29.75,SW,229,0.0,0.0,99,0.00,,,-99.99,,2013-07-11 08:43:00,
2013-07-11 04:53:00,64.0,64.0,29.75,SW,229,0.0,0.0,99,0.00,,,-99.99,,2013-07-11 08:53:00,
2013-07-11 05:03:00,64.0,64.0,29.75,SW,229,0.0,0.0,99,0.00,,,-99.99,,2013-07-11 09:03:00,
2013-07-11 05:12:00,64.0,64.0,29.75,SW,229,0.0,0.0,99,0.00,,,-99.99,,2013-07-11 09:12:00,
2013-07-11 05:22:00,64.0,64.0,29.75,SW,229,0.0,0.0,99,0.00,,,-99.99,,2013-07-11 09:22:00,
2013-07-11 05:33:00,64.0,64.0,29.75,SW,229,0.0,0.0,99,0.00,,,-99.99,,2013-07-11 09:33:00,
2013-07-11 05:43:00,64.0,64.0,29.76,SW,229,0.0,0.0,99,0.00,,,-99.99,,2013-07-11 09:43:00,
2013-07-11 05:53:00,64.0,64.0,29.76,SW,218,0.0,2.0,99,0.00,,,-99.99,,2013-07-11 09:53:00,
2013-07-11 06:01:00,63.0,63.0,29.77,SW,218,0.0,4.0,99,0.00,,,-99.99,,2013-07-11 10:01:00,
2013-07-11 06:33:00,63.0,63.0,29.77,SW,218,0.0,1.0,99,0.00,,,-99.99,,2013-07-11 10:33:00,
2013-07-11 06:43:00,63.0,63.0,29.78,SW,218,0.0,0.0,99,0.00,,,-99.99,,2013-07-11 10:43:00,
2013-07-11 06:52:00,63.0,63.0,29.77,SSW,206,1.0,2.0,99,0.00,,,-99.99,,2013-07-11 10:52:00,
2013-07-11 07:02:00,63.0,63.0,29.77,SSW,206,0.0,2.0,99,0.00,,,-99.99,,2013-07-11 11:02:00,
2013-07-11 07:22:00,64.0,64.0,29.78,SSW,206,0.0,0.0,99,0.00,,,-99.99,,2013-07-11 11:22:00,
2013-07-11 07:32:00,64.0,64.0,29.78,SSW,206,0.0,0.0,99,0.00,,,-99.99,,2013-07-11 11:32:00,
2013-07-11 07:43:00,65.0,65.0,29.78,SSW,206,0.0,0.0,99,0.00,,,-99.99,,2013-07-11 11:43:00,
2013-07-11 07:53:00,65.0,65.0,29.78,SSW,206,0.0,0.0,99,0.00,,,-99.99,,2013-07-11 11:53:00,
2013-07-11 08:01:00,66.0,66.0,29.77,SSW,206,0.0,2.0,100,0.00,,,-99.99,,2013-07-11 12:01:00,
2013-07-11 08:12:00,66.0,66.0,29.76,SSW,206,0.0,4.0,99,0.00,,,-99.99,,2013-07-11 12:12:00,
2013-07-11 08:22:00,66.0,66.0,29.77,SSW,206,0.0,2.0,100,0.00,,,-99.99,,2013-07-11 12:22:00,
2013-07-11 08:33:00,67.0,67.0,29.77,SSW,206,0.0,1.0,100,0.00,,,-99.99,,2013-07-11 12:33:00,
2013-07-11 08:43:00,67.0,67.0,29.76,SSW,206,0.0,1.0,100,0.00,,,-99.99,,2013-07-11 12:43:00,
2013-07-11 08:55:00,67.0,67.0,29.75,SSW,206,0.0,2.0,99,0.00,,,-99.99,,2013-07-11 12:55:00,
2013-07-11 09:02:00,68.0,68.0,29.75,SE,138,0.0,4.0,99,0.00,,,-99.99,,2013-07-11 13:02:00,
2013-07-11 09:13:00,68.0,68.0,29.75,SE,138,0.0,4.0,99,0.00,,,-99.99,,2013-07-11 13:13:00,
2013-07-11 09:34:00,69.0,69.0,29.76,SSE,159,0.0,2.0,99,0.00,,,-99.99,,2013-07-11 13:34:00,
2013-07-11 10:05:00,67.0,67.0,29.75,South,183,0.0,4.0,99,0.00,,,-99.99,,2013-07-11 14:05:00,
2013-07-11 14:35:00,77.0,72.0,29.80,NNW,327,5.0,11.0,84,0.00,,,-99.99,,2013-07-11 18:35:00,
2013-07-11 14:47:00,75.0,70.0,29.80,WNW,282,7.0,14.0,85,0.00,,,-99.99,,2013-07-11 18:47:00,
2013-07-11 14:54:00,75.0,70.0,29.80,WNW,282,7.0,14.0,85,0.00,,,-99.99,,2013-07-11 18:54:00,
2013-07-11 15:05:00,74.0,70.0,29.80,NW,307,6.0,14.0,87,0.00,,,-99.99,,2013-07-11 19:05:00,
2013-07-11 15:13:00,74.0,70.0,29.80,NW,324,5.0,11.0,87,0.00,,,-99.99,,2013-07-11 19:13:00,
2013-07-11 15:39:00,75.0,71.0,29.79,NW,311,5.0,10.0,86,0.00,,,-99.99,,2013-07-11 19:39:00,
2013-07-11 15:46:00,75.0,70.0,29.79,NW,325,4.0,10.0,84,0.00,,,-99.99,,2013-07-11 19:46:00,
2013-07-11 15:57:00,74.0,69.0,29.80,NNW,327,1.0,8.0,84,0.00,,,-99.99,,2013-07-11 19:57:00,
2013-07-11 16:07:00,74.0,69.0,29.80,NW,323,0.0,8.0,85,0.00,,,-99.99,,2013-07-11 20:07:00,
2013-07-11 16:13:00,74.0,69.0,29.80,NW,318,2.0,6.0,85,0.00,,,-99.99,,2013-07-11 20:13:00,
2013-07-11 16:39:00,74.0,69.0,29.80,NW,305,0.0,3.0,84,0.00,,,-99.99,,2013-07-11 20:39:00,
2013-07-11 16:47:00,74.0,68.0,29.79,NNW,332,0.0,3.0,83,0.00,,,-99.99,,2013-07-11 20:47:00,
2013-07-11 16:54:00,74.0,68.0,29.79,NNW,332,0.0,3.0,83,0.00,,,-99.99,,2013-07-11 20:54:00,
2013-07-11 17:15:00,75.0,69.0,29.80,NNW,332,3.0,5.0,82,0.00,,,-99.99,,2013-07-11 21:15:00,
2013-07-11 17:56:00,76.0,69.0,29.81,NNW,332,0.0,5.0,80,0.00,,,-99.99,,2013-07-11 21:56:00,
2013-07-11 18:54:00,76.0,70.0,29.82,NNW,332,0.0,0.0,82,0.00,,,-99.99,,2013-07-11 22:54:00,
2013-07-11 19:06:00,76.0,70.0,29.82,NNW,332,0.0,0.0,83,0.00,,,-99.99,,2013-07-11 23:06:00,
2013-07-11 19:26:00,75.0,69.0,29.83,NNW,332,0.0,1.0,82,0.00,,,-99.99,,2013-07-11 23:26:00,
2013-07-11 19:36:00,75.0,70.0,29.84,NNW,332,0.0,0.0,84,0.00,,,-99.99,,2013-07-11 23:36:00,
2013-07-11 19:47:00,75.0,70.0,29.84,NNW,331,0.0,0.0,85,0.00,,,-99.99,,2013-07-11 23:47:00,
2013-07-11 20:05:00,74.0,70.0,29.85,NNW,332,0.0,0.0,88,0.00,,,-99.99,,2013-07-12 00:05:00,
2013-07-11 20:15:00,73.0,70.0,29.85,NNW,332,0.0,0.0,90,0.00,,,-99.99,,2013-07-12 00:15:00,
2013-07-11 20:26:00,72.0,69.0,29.85,NNW,332,0.0,0.0,91,0.00,,,-99.99,,2013-07-12 00:26:00,
2013-07-11 20:37:00,72.0,69.0,29.85,NNW,332,0.0,0.0,91,0.00,,,-99.99,,2013-07-12 00:37:00,
2013-07-11 20:45:00,71.0,69.0,29.86,NNW,332,0.0,0.0,93,0.00,,,-99.99,,2013-07-12 00:45:00,
2013-07-11 20:55:00,70.0,68.0,29.86,NNW,332,0.0,0.0,93,0.00,,,-99.99,,2013-07-12 00:55:00,
2013-07-11 21:05:00,70.0,68.0,29.87,NNW,331,0.0,0.0,93,0.00,,,-99.99,,2013-07-12 01:05:00,
2013-07-11 21:37:00,69.0,67.0,29.88,NNW,332,0.0,0.0,94,0.00,,,-99.99,,2013-07-12 01:37:00,
2013-07-11 21:46:00,68.0,67.0,29.88,NNW,332,0.0,0.0,95,0.00,,,-99.99,,2013-07-12 01:46:00,
2013-07-11 22:08:00,67.0,66.0,29.89,NNW,332,0.0,0.0,95,0.00,,,-99.99,,2013-07-12 02:08:00,
2013-07-11 22:17:00,67.0,66.0,29.89,NNW,332,0.0,0.0,95,0.00,,,-99.99,,2013-07-12 02:17:00,
2013-07-11 22:26:00,67.0,66.0,29.89,NNW,332,0.0,0.0,96,0.00,,,-99.99,,2013-07-12 02:26:00,
2013-07-11 22:45:00,66.0,65.0,29.90,NNW,332,0.0,0.0,96,0.00,,,-99.99,,2013-07-12 02:45:00,
2013-07-11 22:54:00,66.0,65.0,29.91,NNW,332,0.0,0.0,96,0.00,,,-99.99,,2013-07-12 02:54:00,
2013-07-11 23:04:00,66.0,65.0,29.91,NNW,332,0.0,0.0,96,0.00,,,-99.99,,2013-07-12 03:04:00,
2013-07-11 23:14:00,66.0,65.0,29.91,NNW,332,0.0,0.0,97,0.00,,,-99.99,,2013-07-12 03:14:00,
2013-07-11 23:37:00,65.0,64.0,29.92,NNW,332,0.0,0.0,97,0.00,,,-99.99,,2013-07-12 03:37:00,
2013-07-11 23:46:00,66.0,65.0,29.92,NNW,332,0.0,0.0,97,0.00,,,-99.99,,2013-07-12 03:46:00,
2013-07-11 23:54:00,66.0,65.0,29.93,NNW,331,0.0,0.0,98,0.00,,,-99.99,,2013-07-12 03:54:00,